Ridgebury Kathrine Z — V7CT5 — position and weather

sailwx.info

Track history (hours):
 
Tides and Currents Weather Stations Pressure Air Temp Water Temp Dewpoint Dewpoint Depression Visibility Wind Speed Wind Dir Waves Ship Positions

Ridgebury Kathrine Z

Last reported at 2018-Jun-19 03:59 UTC. Time now 2018-Jun-19 12:45 UTC.
Position N 29°19' W 094°34'.

Length 183 m; draft 8.8 m.

Type: Ship (hazmat cat C). MMSI: 538005320.

Date/timePositionNaut miles runAvg speedWind from/ knotsBaromVisibWave heightAir tempDewpointWater temp
2018-Jun-19 03:59N 29°19' W 094°34'0 0.0
2018-Jun-19 02:20N 29°19' W 094°34'0 0.0
2018-Jun-19 01:56N 29°19' W 094°34'0 0.0
2018-Jun-19 00:47N 29°19' W 094°34'0 0.0
2018-Jun-19 00:23N 29°19' W 094°34'0 0.0
2018-Jun-18 16:41N 29°19' W 094°34'0 0.1
2018-Jun-18 16:29N 29°19' W 094°34'0 0.0
2018-Jun-18 15:29N 29°19' W 094°34'0 0.0
2018-Jun-18 14:59N 29°19' W 094°34'0 0.0
2018-Jun-18 14:29N 29°19' W 094°34'0 0.0
2018-Jun-18 13:56N 29°19' W 094°34'0 0.0
2018-Jun-18 13:11N 29°19' W 094°34'0 0.1
2018-Jun-18 12:59N 29°19' W 094°34'0 0.0
2018-Jun-18 12:05N 29°19' W 094°34'0 0.0
2018-Jun-18 09:32N 29°19' W 094°34'0 0.0
2018-Jun-18 09:14N 29°19' W 094°34'0 0.0
2018-Jun-17 19:11N 29°19' W 094°34'  
2018-Jun-14 01:32N 29°19' W 094°34'0 0.0
2018-Jun-14 01:05N 29°19' W 094°34'0 0.0
2018-Jun-13 10:47N 29°19' W 094°34'3 2.4
2018-Jun-13 09:43N 29°17' W 094°36'411.3
2018-Jun-13 09:24N 29°19' W 094°39'4 9.8
2018-Jun-13 09:00N 29°21' W 094°43'4 8.8
2018-Jun-13 08:30N 29°22' W 094°48'510.0
2018-Jun-13 08:00N 29°26' W 094°50'611.1
2018-Jun-13 07:30N 29°31' W 094°53'611.1
2018-Jun-13 07:00N 29°36' W 094°57'5 9.8
2018-Jun-13 06:30N 29°40' W 094°59'4 7.6
2018-Jun-13 05:59N 29°44' W 095°01'4 7.9
2018-Jun-13 05:30N 29°46' W 095°05'4 6.1
2018-Jun-13 04:49N 29°45' W 095°10'2 5.2
2018-Jun-13 04:29N 29°45' W 095°12'8 0.5
2018-Jun-12 13:18N 29°44' W 095°03'2 5.6
2018-Jun-12 12:56N 29°42' W 095°01'4 9.0
2018-Jun-12 12:31N 29°40' W 094°58'510.1
2018-Jun-12 12:01N 29°35' W 094°56'612.5
2018-Jun-12 11:30N 29°30' W 094°52'713.4
2018-Jun-12 10:59N 29°23' W 094°49'16 0.4
2018-Jun-10 14:50N 29°19' W 094°31'0 0.0
2018-Jun-10 14:17N 29°19' W 094°31'0 0.0
2018-Jun-09 04:05N 29°19' W 094°31'  
Track history (hours):
 
Tides and Currents Weather Stations Pressure Air Temp Water Temp Dewpoint Dewpoint Depression Visibility Wind Speed Wind Dir Waves Ship Positions

Ridgebury Kathrine Z

Last reported at 2018-Jun-19 03:59 UTC. Time now 2018-Jun-19 12:45 UTC.
Position N 29°19' W 094°34'.

Length 183 m; draft 8.8 m.

Type: Ship (hazmat cat C). MMSI: 538005320.

Date/timePositionNaut miles runAvg speedWind from/ knotsBaromVisibWave heightAir tempDewpointWater temp
2018-Jun-19 03:59N 29°19' W 094°34'0 0.0
2018-Jun-19 02:20N 29°19' W 094°34'0 0.0
2018-Jun-19 01:56N 29°19' W 094°34'0 0.0
2018-Jun-19 00:47N 29°19' W 094°34'0 0.0
2018-Jun-19 00:23N 29°19' W 094°34'0 0.0
2018-Jun-18 16:41N 29°19' W 094°34'0 0.1
2018-Jun-18 16:29N 29°19' W 094°34'0 0.0
2018-Jun-18 15:29N 29°19' W 094°34'0 0.0
2018-Jun-18 14:59N 29°19' W 094°34'0 0.0
2018-Jun-18 14:29N 29°19' W 094°34'0 0.0
2018-Jun-18 13:56N 29°19' W 094°34'0 0.0
2018-Jun-18 13:11N 29°19' W 094°34'0 0.1
2018-Jun-18 12:59N 29°19' W 094°34'0 0.0
2018-Jun-18 12:05N 29°19' W 094°34'0 0.0
2018-Jun-18 09:32N 29°19' W 094°34'0 0.0
2018-Jun-18 09:14N 29°19' W 094°34'0 0.0
2018-Jun-17 19:11N 29°19' W 094°34'  
2018-Jun-14 01:32N 29°19' W 094°34'0 0.0
2018-Jun-14 01:05N 29°19' W 094°34'0 0.0
2018-Jun-13 10:47N 29°19' W 094°34'3 2.4
2018-Jun-13 09:43N 29°17' W 094°36'411.3
2018-Jun-13 09:24N 29°19' W 094°39'4 9.8
2018-Jun-13 09:00N 29°21' W 094°43'4 8.8
2018-Jun-13 08:30N 29°22' W 094°48'510.0
2018-Jun-13 08:00N 29°26' W 094°50'611.1
2018-Jun-13 07:30N 29°31' W 094°53'611.1
2018-Jun-13 07:00N 29°36' W 094°57'5 9.8
2018-Jun-13 06:30N 29°40' W 094°59'4 7.6
2018-Jun-13 05:59N 29°44' W 095°01'4 7.9
2018-Jun-13 05:30N 29°46' W 095°05'4 6.1
2018-Jun-13 04:49N 29°45' W 095°10'2 5.2
2018-Jun-13 04:29N 29°45' W 095°12'8 0.5
2018-Jun-12 13:18N 29°44' W 095°03'2 5.6
2018-Jun-12 12:56N 29°42' W 095°01'4 9.0
2018-Jun-12 12:31N 29°40' W 094°58'510.1
2018-Jun-12 12:01N 29°35' W 094°56'612.5
2018-Jun-12 11:30N 29°30' W 094°52'713.4
2018-Jun-12 10:59N 29°23' W 094°49'16 0.4
2018-Jun-10 14:50N 29°19' W 094°31'0 0.0
2018-Jun-10 14:17N 29°19' W 094°31'0 0.0
2018-Jun-09 04:05N 29°19' W 094°31'  

Dump ship's entire track history